Kezdőlap
METAR-TAF:

METAR-TAF

Repülőterek :

Hongkongi nemzetközi repülőtér

Hongkong, Kína

földrajzi szélesség: 22-19N, földrajzi hosszúság: 113-55E, magasság: 9 m

Jelenlegi meteorológiai megfigyelések

A jelentés 32 perccel ezelõtt készült, 03:30 UTC
Északkeleti szél 10 kt
Hőmérséklet 20°C
Páratartalom 40%
Légköri nyomás 1026 hPa
Látótávolság 10 km, vagy több
Kevés felhő 3500 lábon

METAR: VHHH 200330Z 05010KT 9999 FEW035 20/06 Q1026 NOSIG

Idő: 12:02 (04:02 UTC)

Előrejelzés

A jelentés 5 órával és 2 perccel ezelõtt készült, 23:00 UTC
Az előrejelzés 20-én 00 óra UTC és 21-én 06 óra UTC között érvényes
Keleti szél 10 kt
Látótávolság 10 km, vagy több
Kevés felhő 3500 lábon
20-én 04 óra UTC és 20-én 09 óra UTC között ideiglenes
Nyugati szél 10 kt

TAF: VHHH 192300Z 2000/2106 08010KT 9999 FEW035 TX22/2006Z TX22/2106Z TN16/2022Z TEMPO 2004/2009 28010KT

Meteorológiai megfigyelések és előrejelzések több, mint 4000 repülőtéren (METAR és TAF jelentéseket).

A térképen piros és sárga pontok jelzik az elérhető meteorológiai állomásokat.

Mozgassa az egeret a pont fölött, hogy megjelenjen az állomás neve.

Azután kattintson az időjárási megfigyelések és előrejelzések megtekintéséhez.

A térkép megváltoztatása: kattintson a fekete keresztel jelölt zöld gombra ráközelítéshez, a vonallal jelölt zöld gombra távolításhoz, vagy a zöld nyilakra a szomszédos térképek eléréséhez.


METAR-TAF: